Flight Track Log - Related Links

Times and Time Zones

All times are in EDT time to prevent confusion due to time zone crossing. See the AWE1940 flight status page for this flight to view local times or setup timezone preferences in your user account.

Time Position Orientation Groundspeed Altitude Reporting Facility
EDT Latitude Longitude Course Direction KTS MPH feet Rate Location/Type
Mon 10:27:06 PM 35.1908 -80.9356 72° East 158 182 1,900  Level Atlanta Center
Mon 10:27:36 PM 35.1719 -80.9314 170° South 158 182 2,900 1,912 Climbing Atlanta Center
Mon 10:28:37 PM 35.1331 -80.8794 132° Southeast 255 293 4,800 1,828 Climbing Atlanta Center
Mon 10:29:00 PM 35.1000 -80.6333 90° East  Level FlightAware Approximate
Mon 10:29:44 PM 35.1686 -80.7994 61° Northeast 290 334 6,800  Level Atlanta Center
Mon 10:30:00 PM 35.1927 -80.5716 29° Northeast  Level FlightAware Approximate
Mon 10:30:44 PM 35.2017 -80.7142 65° Northeast 290 334 9,200  Level Atlanta Center
Mon 10:31:00 PM 35.2840 -80.5067 30° Northeast  Level FlightAware Approximate
Mon 10:31:44 PM 35.2389 -80.6236 63° Northeast 290 334 11,100  Level Atlanta Center
Mon 10:32:00 PM 35.3449 -80.4230 72° East  Level FlightAware Approximate
Mon 10:32:44 PM 35.2819 -80.5200 63° Northeast 318 366 12,600  Level Atlanta Center
Mon 10:33:44 PM 35.3244 -80.4064 65° Northeast 352 405 15,000 2,293 Climbing Atlanta Center
Mon 10:35:55 PM 35.4264 -80.1547 64° Northeast 375 432 19,900 1,969 Climbing Washington Center
Mon 10:36:56 PM 35.4578 -80.0417 71° East 380 437 21,300 1,884 Climbing Washington Center
Mon 10:37:56 PM 35.4992 -79.8808 72° East 391 450 23,700 2,100 Climbing Washington Center
Mon 10:38:56 PM 35.5350 -79.7475 72° East 401 461 25,500 1,600 Climbing Washington Center
Mon 10:39:56 PM 35.5689 -79.6114 73° East 407 468 26,900 744 Climbing Washington Center
Mon 10:40:57 PM 35.6003 -79.4850 73° East 423 487 27,000 50 Climbing Washington Center
Mon 10:41:57 PM 35.6486 -79.3444 67° East 411 473 27,000  Level Washington Center
Mon 10:42:55 PM 35.7028 -79.2139 63° Northeast 411 473 27,000  Level Washington Center
Mon 10:43:55 PM 35.7544 -79.0883 63° Northeast 411 473 27,000  Level Washington Center
Mon 10:44:57 PM 35.8039 -78.9625 64° Northeast 417 480 27,000  Level Washington Center
Mon 10:45:57 PM 35.8578 -78.8314 63° Northeast 417 480 27,000  Level Washington Center
Mon 10:46:55 PM 35.9153 -78.7056 61° Northeast 417 480 27,000  Level Washington Center
Mon 10:47:55 PM 35.9769 -78.5797 59° Northeast 417 480 27,000  Level Washington Center
Mon 10:48:56 PM 36.0364 -78.4533 60° Northeast 417 480 27,000  Level Washington Center
Mon 10:49:56 PM 36.0975 -78.3322 58° Northeast 417 480 27,000  Level Washington Center
Mon 10:50:57 PM 36.1567 -78.2058 60° Northeast 417 480 27,000  Level Washington Center
Mon 10:51:55 PM 36.2158 -78.0789 60° Northeast 417 480 27,000  Level Washington Center
Mon 10:52:57 PM 36.2747 -77.9544 60° Northeast 412 474 27,000  Level Washington Center
Mon 10:53:55 PM 36.3356 -77.8300 59° Northeast 412 474 27,000  Level Washington Center
Mon 10:54:57 PM 36.3961 -77.7053 59° Northeast 412 474 27,000  Level Washington Center
Mon 10:55:57 PM 36.4461 -77.5906 62° Northeast 412 474 27,000  Level Washington Center
Mon 10:56:56 PM 36.5044 -77.4628 60° Northeast 412 474 27,000  Level Washington Center
Mon 10:57:56 PM 36.5628 -77.3375 60° Northeast 417 480 27,000  Level Washington Center
Mon 10:58:57 PM 36.6228 -77.2119 59° Northeast 417 480 27,000  Level Washington Center
Mon 10:59:56 PM 36.6808 -77.0836 61° Northeast 417 480 27,000  Level Washington Center
Mon 11:00:57 PM 36.7553 -76.9736 50° Northeast 412 474 27,000  Level Washington Center
Mon 11:01:55 PM 36.8500 -76.8872 36° Northeast 405 466 27,000  Level Washington Center
Mon 11:02:56 PM 36.9428 -76.8056 35° Northeast 405 466 27,000  Level Washington Center
Mon 11:03:55 PM 37.0353 -76.7236 35° Northeast 405 466 27,000  Level Washington Center
Mon 11:04:55 PM 37.1383 -76.6289 36° Northeast 410 472 27,000  Level Washington Center
Mon 11:05:55 PM 37.2289 -76.5467 36° Northeast 410 472 27,000  Level Washington Center
Mon 11:06:55 PM 37.3233 -76.4589 36° Northeast 410 472 27,000  Level Washington Center
Mon 11:07:55 PM 37.4178 -76.3736 36° Northeast 410 472 27,000  Level Washington Center
Mon 11:08:55 PM 37.5081 -76.2881 37° Northeast 410 472 27,000  Level Washington Center
Mon 11:09:56 PM 37.6003 -76.2025 36° Northeast 410 472 27,000  Level Washington Center
Mon 11:10:57 PM 37.6881 -76.1325 32° Northeast 405 466 27,000  Level Washington Center
Mon 11:11:55 PM 37.7844 -76.0333 39° Northeast 405 466 27,000  Level Washington Center
Mon 11:12:55 PM 37.8764 -75.9494 36° Northeast 411 473 27,000  Level Washington Center
Mon 11:13:57 PM 37.9683 -75.8658 36° Northeast 411 473 27,000  Level Washington Center
Mon 11:14:57 PM 38.0583 -75.7764 38° Northeast 411 473 27,000  Level Washington Center
Mon 11:15:55 PM 38.1419 -75.7000 36° Northeast 411 473 27,000  Level Washington Center
Mon 11:16:56 PM 38.2314 -75.6181 36° Northeast 406 467 27,000  Level Washington Center
Mon 11:17:57 PM 38.3233 -75.5308 37° Northeast 401 461 27,000 -50 Level Washington Center
Mon 11:18:55 PM 38.4233 -75.4778 23° Northeast 394 453 26,900  Descending Washington Center
Mon 11:19:55 PM 38.5253 -75.4378 17° North 384 442 27,000 50 Climbing Washington Center
Mon 11:20:56 PM 38.6253 -75.3978 17° North 379 436 27,000  Level Washington Center
Mon 11:21:56 PM 38.7294 -75.3547 18° North 379 436 27,000  Level Washington Center
Mon 11:22:56 PM 38.8275 -75.3144 18° North 379 436 27,000  Level Washington Center
Mon 11:23:56 PM 38.9294 -75.2714 18° North 379 436 27,000  Level Washington Center
Mon 11:24:57 PM 39.0272 -75.2283 19° North 374 430 27,000  Level Washington Center
Mon 11:25:55 PM 39.1272 -75.1850 19° North 374 430 27,000 -50 Level Washington Center
Mon 11:26:57 PM 39.2272 -75.1469 16° North 374 430 26,900  Descending Washington Center
Mon 11:27:57 PM 39.3250 -75.0925 23° Northeast 380 437 27,000 50 Climbing Washington Center
Mon 11:28:56 PM 39.4161 -75.0006 38° Northeast 391 450 27,000  Level Washington Center
Mon 11:29:55 PM 39.5033 -74.9139 37° Northeast 391 450 27,000  Level Washington Center
Mon 11:30:56 PM 39.5903 -74.8242 38° Northeast 396 456 27,000  Level Washington Center
Mon 11:32:43 PM 39.7511 -74.6697 36° Northeast 429 494 27,000  Level New York Center
Mon 11:33:44 PM 39.8417 -74.5775 38° Northeast 416 479 27,000  Level New York Center
Mon 11:34:42 PM 39.9319 -74.4931 36° Northeast 405 466 27,000  Level New York Center
Mon 11:35:43 PM 40.0203 -74.4031 38° Northeast 405 466 27,000 -50 Level New York Center
Mon 11:36:42 PM 40.1231 -74.3783 10° North 376 433 26,900  Descending New York Center
Mon 11:37:44 PM 40.2258 -74.3594 North 364 419 27,000 50 Climbing New York Center
Mon 11:38:41 PM 40.3264 -74.3400 North 364 419 27,000  Level New York Center
Mon 11:39:43 PM 40.4417 -74.3133 10° North 369 425 27,000  Level New York Center
Mon 11:40:44 PM 40.5444 -74.2914 North 369 425 27,000  Level New York Center
Mon 11:42:37 PM 40.7456 -74.2564 North 387 445 27,000 -312 Level Boston Center
Mon 11:43:37 PM 40.8522 -74.2319 10° North 387 445 26,100 -500 Descending Boston Center
Mon 11:44:37 PM 40.9547 -74.2072 10° North 382 440 26,000 -50 Descending Boston Center
Mon 11:45:37 PM 41.0572 -74.1853 North 382 440 26,000  Level Boston Center
Mon 11:46:37 PM 41.1597 -74.1633 North 374 430 26,000  Level Boston Center
Mon 11:47:37 PM 41.2456 -74.1461 North 374 430 26,000  Level Boston Center
Mon 11:48:37 PM 41.3667 -74.1161 11° North 368 423 26,000  Level Boston Center
Mon 11:49:37 PM 41.4692 -74.0886 11° North 368 423 26,000 -1,250 Level Boston Center
Mon 11:50:37 PM 41.5781 -74.0692 North 374 430 23,500 -2,350 Descending Boston Center
Mon 11:51:37 PM 41.6783 -74.0467 10° North 374 430 21,300 -2,250 Descending Boston Center
Mon 11:52:37 PM 41.7786 -74.0242 North 374 430 19,000 -2,348 Descending Boston Center
Mon 11:53:09 PM 41.8331 -74.0144 North 365 420 17,700 -1,900 Descending Boston Center
Mon 11:53:37 PM 41.8664 -74.0067 10° North 353 406 17,100 -2,066 Descending Boston Center
Mon 11:54:10 PM 41.9272 -73.9917 10° North 353 406 15,600 -2,300 Descending Boston Center
Mon 11:54:37 PM 41.9711 -73.9814 10° North 353 406 14,800 -1,770 Descending Boston Center
Mon 11:55:11 PM 42.0211 -73.9714 North 341 392 13,800 -1,700 Descending Boston Center
Mon 11:55:37 PM 42.0608 -73.9586 13° North 332 382 13,100 -1,500 Descending Boston Center
Mon 11:56:11 PM 42.1111 -73.9514 North 320 368 12,300 -1,400 Descending Boston Center
Mon 11:56:37 PM 42.1403 -73.9408 15° North 323 372 11,700 -1,475 Descending Boston Center
Mon 11:57:12 PM 42.1928 -73.9253 12° North 298 343 10,800 -1,600 Descending Boston Center
Mon 11:57:37 PM 42.2261 -73.9092 20° North 297 342 10,100 -1,400 Descending Boston Center
Mon 11:58:12 PM 42.2744 -73.8964 11° North 283 326 9,400 -1,438 Descending Boston Center
Mon 11:59:13 PM 42.3475 -73.8728 13° North 263 303 7,800 -1,377 Descending Boston Center
Tue 12:00:14 AM 42.4147 -73.8489 15° North 243 280 6,600 -1,438 Descending Boston Center
Tue 12:01:14 AM 42.4753 -73.8306 13° North 229 264 4,900 -1,438 Descending Boston Center
Tue 12:02:15 AM 42.5339 -73.8067 17° North 222 255 3,700 -992 Descending Boston Center
Tue 12:03:15 AM 42.5861 -73.7994 North 181 208 2,900 -800 Descending Boston Center

Login

Don't have an account? Register now (free) for customized features, flight alerts, and more!